createdAt,value
2023-05-11T00:02:25.929Z,94043.16
2023-05-11T00:04:52.888Z,94049.31
2023-05-11T00:07:19.498Z,94043.81
2023-05-11T00:09:46.163Z,94040.34
2023-05-11T00:12:14.224Z,94039.13
2023-05-11T00:14:41.032Z,94039.78
2023-05-11T00:17:07.815Z,94045.16
2023-05-11T00:19:34.558Z,94038.88
2023-05-11T00:22:01.816Z,94043.13
2023-05-11T00:24:29.232Z,94033.97
2023-05-11T00:26:56.061Z,94038.44
2023-05-11T00:29:22.963Z,94036.44
2023-05-11T00:31:50.271Z,94037.13
2023-05-11T00:34:17.967Z,94037.13
2023-05-11T00:36:45.482Z,94027.38
2023-05-11T00:39:12.579Z,94030.41
2023-05-11T00:41:39.430Z,94040.47
2023-05-11T00:44:06.225Z,94029.94
2023-05-11T00:46:33.508Z,94032.75
2023-05-11T00:49:00.491Z,94022.47
2023-05-11T00:51:27.967Z,94022.78
2023-05-11T00:53:54.837Z,94020.56
2023-05-11T00:56:22.012Z,94024.66
2023-05-11T00:58:48.824Z,94025.13
2023-05-11T01:01:18.027Z,94023.88
2023-05-11T01:03:46.232Z,94026.25
2023-05-11T01:06:39.885Z,94028.81
2023-05-11T01:09:13.092Z,94025.91
2023-05-11T01:11:50.699Z,94024.22
2023-05-11T01:14:20.435Z,94018.53
2023-05-11T01:16:53.337Z,94000.88
2023-05-11T01:19:46.922Z,94022.66
2023-05-11T01:22:34.016Z,94023.75
2023-05-11T01:25:01.049Z,94022.53
2023-05-11T01:28:09.590Z,94016.72
2023-05-11T01:30:49.431Z,94022.06
2023-05-11T01:33:18.135Z,94019.06
2023-05-11T01:35:50.851Z,94022.97
2023-05-11T01:38:19.987Z,94020.28
2023-05-11T01:40:55.470Z,94019.38
2023-05-11T01:43:25.601Z,94024.66
2023-05-11T01:45:55.790Z,94021.88
2023-05-11T01:48:31.425Z,94024.09
2023-05-11T01:51:03.048Z,94017.16
2023-05-11T01:53:33.239Z,94020.97
2023-05-11T01:56:01.676Z,94021.41
2023-05-11T01:58:30.400Z,94017.16
2023-05-11T02:01:00.273Z,94017.63
2023-05-11T02:03:29.864Z,94020.28
2023-05-11T02:05:58.426Z,94023.97
2023-05-11T02:08:29.779Z,94009.88
2023-05-11T02:10:58.089Z,94017.69
2023-05-11T02:13:27.532Z,94022.28
2023-05-11T02:15:57.329Z,94026.19
2023-05-11T02:18:24.370Z,94023.84
2023-05-11T02:20:59.658Z,94015.94
2023-05-11T02:23:27.738Z,94021.28
2023-05-11T02:25:55.431Z,94025.41
2023-05-11T02:28:22.896Z,94015.94
2023-05-11T02:30:54.153Z,94024.88
2023-05-11T02:33:27.304Z,94007.75
2023-05-11T02:35:55.626Z,94010.78
2023-05-11T02:38:31.183Z,94019.38
2023-05-11T02:41:06.102Z,94021.69
2023-05-11T02:43:37.071Z,94017.56
2023-05-11T02:46:09.023Z,94014.44
2023-05-11T02:48:41.765Z,94010.44
2023-05-11T02:51:11.236Z,94008.44
2023-05-11T02:53:45.707Z,94016.34
2023-05-11T02:56:13.432Z,94008.22
2023-05-11T02:58:41.057Z,94007.31
2023-05-11T03:01:21.390Z,94007.63
2023-05-11T03:03:48.423Z,94012.34
2023-05-11T03:06:15.451Z,94010.75
2023-05-11T03:08:42.976Z,94014.75
2023-05-11T03:11:12.608Z,94003.72
2023-05-11T03:13:39.420Z,94000.25
2023-05-11T03:16:08.705Z,94007.50
2023-05-11T03:18:36.420Z,94002.16
2023-05-11T03:21:03.340Z,93994.78
2023-05-11T03:23:31.573Z,94003.84
2023-05-11T03:26:00.168Z,94007.19
2023-05-11T03:28:29.739Z,94005.72
2023-05-11T03:31:04.034Z,93992.22
2023-05-11T03:33:32.327Z,93983.59
2023-05-11T03:36:01.658Z,94002.16
2023-05-11T03:38:30.911Z,93990.41
2023-05-11T03:41:00.003Z,93989.63
2023-05-11T03:43:28.794Z,93994.97
2023-05-11T03:45:57.625Z,93986.72
2023-05-11T03:48:25.691Z,93990.97
2023-05-11T03:50:52.657Z,93991.19
2023-05-11T03:53:20.045Z,93989.84
2023-05-11T03:55:46.771Z,93993.63
2023-05-11T03:58:13.604Z,93981.38
2023-05-11T04:00:41.901Z,93991.09
2023-05-11T04:03:12.495Z,93982.47
2023-05-11T04:05:39.562Z,93989.06
2023-05-11T04:08:10.155Z,93980.25
2023-05-11T04:10:38.333Z,93986.72
2023-05-11T04:13:05.115Z,93990.50
2023-05-11T04:15:31.931Z,93988.28
2023-05-11T04:17:58.725Z,93987.84
2023-05-11T04:20:25.598Z,93986.72
2023-05-11T04:22:52.345Z,93991.41
2023-05-11T04:25:19.069Z,93984.50
2023-05-11T04:27:45.798Z,93988.75
2023-05-11T04:30:12.790Z,93976.22
2023-05-11T04:32:39.842Z,93985.94
2023-05-11T04:35:06.784Z,93990.63
2023-05-11T04:37:36.791Z,93992.53
2023-05-11T04:40:07.520Z,93988.84
2023-05-11T04:42:39.572Z,93988.75
2023-05-11T04:45:10.077Z,94000.00
2023-05-11T04:47:37.285Z,94001.56
2023-05-11T04:50:06.127Z,93993.09
2023-05-11T04:52:34.973Z,93996.91
2023-05-11T04:55:01.861Z,93993.78
2023-05-11T04:57:28.890Z,93998.69
2023-05-11T04:59:56.417Z,93997.91
2023-05-11T05:02:23.206Z,93990.84
2023-05-11T05:04:50.521Z,93996.78
2023-05-11T05:07:17.211Z,93998.66
2023-05-11T05:09:45.305Z,93996.88
2023-05-11T05:12:14.199Z,94001.91
2023-05-11T05:14:40.855Z,93996.53
2023-05-11T05:17:07.683Z,93999.00
2023-05-11T05:19:35.009Z,93989.28
2023-05-11T05:22:02.081Z,93995.75
2023-05-11T05:24:30.911Z,93992.28
2023-05-11T05:26:57.673Z,93998.56
2023-05-11T05:29:24.465Z,93997.78
2023-05-11T05:31:51.583Z,93999.34
2023-05-11T05:34:19.532Z,94002.34
2023-05-11T05:36:47.524Z,94016.31
2023-05-11T05:39:14.183Z,94007.63
2023-05-11T05:41:42.556Z,94007.06
2023-05-11T05:44:10.114Z,94004.03
2023-05-11T05:46:37.584Z,94003.47
2023-05-11T05:49:04.425Z,94003.91
2023-05-11T05:51:32.762Z,93996.22
2023-05-11T05:53:59.565Z,94003.25
2023-05-11T05:56:27.067Z,94002.69
2023-05-11T05:58:53.830Z,94004.03
2023-05-11T06:01:22.204Z,94008.88
2023-05-11T06:03:52.137Z,94007.75
2023-05-11T06:06:19.419Z,94009.53
2023-05-11T06:08:46.236Z,94023.38
2023-05-11T06:11:12.931Z,94020.03
2023-05-11T06:13:39.587Z,94016.13
2023-05-11T06:16:06.608Z,94016.00
2023-05-11T06:18:34.599Z,94015.81
2023-05-11T06:21:03.346Z,94020.72
2023-05-11T06:23:31.632Z,94016.69
2023-05-11T06:25:58.529Z,94015.91
2023-05-11T06:28:26.405Z,94017.81
2023-05-11T06:31:00.837Z,94011.69
2023-05-11T06:33:31.351Z,94011.03
2023-05-11T06:35:58.959Z,94012.47
2023-05-11T06:38:28.696Z,94011.03
2023-05-11T06:40:56.444Z,94014.72
2023-05-11T06:43:23.404Z,94019.63
2023-05-11T06:45:52.906Z,94015.84
2023-05-11T06:48:23.449Z,94011.59
2023-05-11T06:50:50.373Z,94010.34
2023-05-11T06:53:18.097Z,94010.94
2023-05-11T06:55:45.053Z,94006.00
2023-05-11T06:58:12.041Z,94011.59
2023-05-11T07:00:39.179Z,94011.91
2023-05-11T07:03:06.521Z,93999.31
2023-05-11T07:05:33.495Z,94010.47
2023-05-11T07:08:00.232Z,94010.38
2023-05-11T07:10:27.050Z,94018.31
2023-05-11T07:12:53.821Z,94006.25
2023-05-11T07:15:20.841Z,94015.31
2023-05-11T07:17:47.980Z,94011.97
2023-05-11T07:20:14.931Z,94017.22
2023-05-11T07:22:41.837Z,94013.97
2023-05-11T07:25:11.998Z,94019.00
2023-05-11T07:27:38.832Z,94012.66
2023-05-11T07:30:06.192Z,94010.75
2023-05-11T07:32:32.940Z,94017.31
2023-05-11T07:34:59.676Z,94014.22
2023-05-11T07:37:26.398Z,94024.69
2023-05-11T07:39:54.435Z,94018.00
2023-05-11T07:42:21.178Z,94019.56
2023-05-11T07:44:48.068Z,94021.00
2023-05-11T07:47:14.875Z,94016.09
2023-05-11T07:49:44.001Z,94019.78
2023-05-11T07:52:11.739Z,94011.38
2023-05-11T07:54:40.195Z,94016.31
2023-05-11T07:57:07.972Z,94018.09
2023-05-11T07:59:34.927Z,94023.47
2023-05-11T08:02:01.789Z,94016.09
2023-05-11T08:04:28.506Z,94006.13
2023-05-11T08:06:55.403Z,93995.28
2023-05-11T08:09:22.878Z,94016.06
2023-05-11T08:11:53.327Z,94021.31
2023-05-11T08:14:21.338Z,94015.63
2023-05-11T08:16:49.721Z,94009.34
2023-05-11T08:19:16.670Z,94008.22
2023-05-11T08:21:44.333Z,94014.91
2023-05-11T08:24:11.045Z,94011.41
2023-05-11T08:26:38.168Z,94011.09
2023-05-11T08:29:04.792Z,94005.72
2023-05-11T08:31:31.790Z,94014.00
2023-05-11T08:33:58.856Z,94009.84
2023-05-11T08:36:25.656Z,94016.47
2023-05-11T08:38:55.187Z,94019.66
2023-05-11T08:41:23.940Z,94021.00
2023-05-11T08:43:51.224Z,94013.59
2023-05-11T08:46:22.452Z,94007.38
2023-05-11T08:48:50.507Z,94011.31
2023-05-11T08:51:17.265Z,94013.19
2023-05-11T08:53:44.132Z,94013.66
2023-05-11T08:56:12.239Z,94010.28
2023-05-11T08:58:40.007Z,94011.50
2023-05-11T09:01:07.503Z,94014.66
2023-05-11T09:03:36.969Z,94008.97
2023-05-11T09:06:07.247Z,94014.63
2023-05-11T09:08:38.936Z,94018.09
2023-05-11T09:11:06.592Z,94011.97
2023-05-11T09:13:33.642Z,94014.44
2023-05-11T09:16:00.452Z,94011.84
2023-05-11T09:18:27.269Z,94011.59
2023-05-11T09:20:54.441Z,94005.50
2023-05-11T09:23:26.768Z,94007.16
2023-05-11T09:25:53.967Z,94014.97
2023-05-11T09:28:27.576Z,94006.72
2023-05-11T09:30:54.636Z,94011.94
2023-05-11T09:33:24.102Z,94007.59
2023-05-11T09:35:50.875Z,94006.03
2023-05-11T09:38:19.955Z,94019.66
2023-05-11T09:40:55.209Z,94008.56
2023-05-11T09:43:23.605Z,94001.78
2023-05-11T09:45:52.298Z,94012.81
2023-05-11T09:48:22.175Z,94012.19
2023-05-11T09:50:50.619Z,94007.16
2023-05-11T09:53:17.886Z,94008.81
2023-05-11T09:55:52.186Z,94008.72
2023-05-11T09:58:18.901Z,94003.78
2023-05-11T10:00:51.328Z,94014.56
2023-05-11T10:03:18.553Z,94007.63
2023-05-11T10:06:01.773Z,94013.44
2023-05-11T10:08:34.474Z,94003.59
2023-05-11T10:11:02.567Z,94011.06
2023-05-11T10:13:32.239Z,94010.53
2023-05-11T10:16:02.042Z,94007.69
2023-05-11T10:18:29.385Z,94001.31
2023-05-11T10:20:58.521Z,94002.25
2023-05-11T10:23:28.813Z,93996.75
2023-05-11T10:25:57.302Z,93997.25
2023-05-11T10:28:24.213Z,93993.00
2023-05-11T10:30:52.466Z,93994.34
2023-05-11T10:33:20.208Z,93999.47
2023-05-11T10:35:47.160Z,93993.91
2023-05-11T10:38:15.175Z,93988.81
2023-05-11T10:40:45.603Z,93993.00
2023-05-11T10:43:49.147Z,93989.16
2023-05-11T10:46:43.723Z,93989.28
2023-05-11T10:49:40.403Z,93977.06
2023-05-11T10:52:21.824Z,93984.94
2023-05-11T10:55:06.474Z,93981.66
2023-05-11T10:57:52.057Z,93980.06
2023-05-11T11:00:47.774Z,93979.03
2023-05-11T11:03:15.730Z,93983.56
2023-05-11T11:05:44.367Z,93985.16
2023-05-11T11:08:11.291Z,93976.66
2023-05-11T11:10:39.409Z,93988.78
2023-05-11T11:13:08.851Z,93986.09
2023-05-11T11:15:54.305Z,93986.69
2023-05-11T11:18:35.838Z,93986.34
2023-05-11T11:21:03.133Z,93982.97
2023-05-11T11:23:49.190Z,93982.28
2023-05-11T11:26:19.226Z,93976.63
2023-05-11T11:28:56.706Z,93981.09
2023-05-11T11:31:32.369Z,93977.59
2023-05-11T11:34:19.934Z,93976.53
2023-05-11T11:36:56.195Z,93974.81
2023-05-11T11:39:23.180Z,93976.63
2023-05-11T11:42:25.849Z,93978.69
2023-05-11T11:44:52.551Z,93973.16
2023-05-11T11:47:21.420Z,93979.41
2023-05-11T11:49:53.777Z,93973.19
2023-05-11T11:52:29.771Z,93980.31
2023-05-11T11:54:59.766Z,93975.28
2023-05-11T11:57:35.715Z,93976.25
2023-05-11T12:00:09.102Z,93975.03
2023-05-11T12:02:45.681Z,93975.91
2023-05-11T12:05:26.582Z,93978.03
2023-05-11T12:07:53.501Z,93976.38
2023-05-11T12:10:21.810Z,93968.56
2023-05-11T12:12:55.091Z,93966.03
2023-05-11T12:15:32.360Z,93976.94
2023-05-11T12:18:02.146Z,93969.78
2023-05-11T12:20:29.144Z,93965.78
2023-05-11T12:22:56.651Z,93972.53
2023-05-11T12:25:23.737Z,93966.19
2023-05-11T12:27:51.524Z,93966.59
2023-05-11T12:30:23.514Z,93968.09
2023-05-11T12:32:56.554Z,93973.91
2023-05-11T12:35:25.303Z,93976.88
2023-05-11T12:37:53.060Z,93970.47
2023-05-11T12:40:20.249Z,93975.00
2023-05-11T12:42:57.661Z,93970.31
2023-05-11T12:45:26.141Z,93963.72
2023-05-11T12:47:55.132Z,93970.88
2023-05-11T12:50:22.246Z,93967.75
2023-05-11T12:52:50.401Z,93964.63
2023-05-11T12:55:28.575Z,93971.34
2023-05-11T12:58:16.624Z,93970.84
2023-05-11T13:00:57.676Z,93977.78
2023-05-11T13:03:26.550Z,93962.50
2023-05-11T13:06:04.236Z,93958.44
2023-05-11T13:08:31.251Z,93964.84
2023-05-11T13:11:25.916Z,93953.13
2023-05-11T13:13:54.711Z,93960.84
2023-05-11T13:16:26.433Z,93952.09
2023-05-11T13:19:00.642Z,93954.16
2023-05-11T13:21:29.294Z,93954.75
2023-05-11T13:23:56.578Z,93959.34
2023-05-11T13:26:25.256Z,93954.06
2023-05-11T13:29:08.777Z,93952.84
2023-05-11T13:31:48.563Z,93954.09
2023-05-11T13:34:15.572Z,93947.91
2023-05-11T13:36:43.065Z,93937.59
2023-05-11T13:39:09.796Z,93944.53
2023-05-11T13:41:36.899Z,93944.53
2023-05-11T13:44:03.590Z,93934.75
2023-05-11T13:46:30.349Z,93945.84
2023-05-11T13:48:58.283Z,93941.06
2023-05-11T13:51:24.926Z,93943.06
2023-05-11T13:53:51.725Z,93947.38
2023-05-11T13:56:19.703Z,93931.50
2023-05-11T13:58:46.397Z,93937.38
2023-05-11T14:01:13.110Z,93935.03
2023-05-11T14:03:40.050Z,93935.34
2023-05-11T14:06:06.934Z,93929.19
2023-05-11T14:08:33.662Z,93937.69
2023-05-11T14:11:00.663Z,93931.88
2023-05-11T14:13:27.340Z,93927.63
2023-05-11T14:15:54.279Z,93933.53
2023-05-11T14:18:21.080Z,93929.97
2023-05-11T14:20:47.901Z,93925.78
2023-05-11T14:23:14.552Z,93926.75
2023-05-11T14:25:41.301Z,93915.91
2023-05-11T14:28:07.964Z,93917.81
2023-05-11T14:30:34.713Z,93931.59
2023-05-11T14:33:01.426Z,93922.25
2023-05-11T14:35:28.115Z,93922.84
2023-05-11T14:37:54.819Z,93913.81
2023-05-11T14:40:21.633Z,93913.13
2023-05-11T14:42:48.743Z,93911.00
2023-05-11T14:45:16.606Z,93908.22
2023-05-11T14:47:43.618Z,93907.69
2023-05-11T14:50:10.434Z,93916.22
2023-05-11T14:52:37.162Z,93914.41
2023-05-11T14:55:04.110Z,93907.63
2023-05-11T14:57:30.872Z,93917.78
2023-05-11T14:59:59.654Z,93906.34
2023-05-11T15:02:27.626Z,93912.22
2023-05-11T15:04:55.026Z,93908.06
2023-05-11T15:07:21.802Z,93906.16
2023-05-11T15:09:48.469Z,93913.88
2023-05-11T15:12:15.133Z,93910.25
2023-05-11T15:14:42.337Z,93914.56
2023-05-11T15:17:09.048Z,93911.38
2023-05-11T15:19:35.824Z,93900.53
2023-05-11T15:22:03.460Z,93909.53
2023-05-11T15:24:30.089Z,93909.97
2023-05-11T15:26:58.032Z,93906.34
2023-05-11T15:29:25.566Z,93918.31
2023-05-11T15:31:52.497Z,93913.34
2023-05-11T15:34:19.329Z,93922.28
2023-05-11T15:36:48.548Z,93916.91
2023-05-11T15:39:18.694Z,93921.09
2023-05-11T15:41:45.737Z,93924.38
2023-05-11T15:44:13.342Z,93925.06
2023-05-11T15:46:40.146Z,93929.66
2023-05-11T15:49:07.676Z,93924.28
2023-05-11T15:51:34.401Z,93925.16
2023-05-11T15:54:01.085Z,93921.84
2023-05-11T15:56:27.784Z,93921.06
2023-05-11T15:58:54.568Z,93928.09
2023-05-11T16:01:21.474Z,93924.09
2023-05-11T16:03:48.300Z,93915.69
2023-05-11T16:06:15.127Z,93921.16
2023-05-11T16:08:41.844Z,93923.06
2023-05-11T16:11:08.509Z,93928.53
2023-05-11T16:13:35.148Z,93924.81
2023-05-11T16:16:01.880Z,93924.19
2023-05-11T16:18:29.595Z,93924.47
2023-05-11T16:20:56.568Z,93920.81
2023-05-11T16:23:25.391Z,93931.38
2023-05-11T16:25:52.579Z,93929.72
2023-05-11T16:28:19.719Z,93923.72
2023-05-11T16:30:46.451Z,93923.09
2023-05-11T16:33:13.373Z,93925.34
2023-05-11T16:35:40.111Z,93924.03
2023-05-11T16:38:06.765Z,93924.97
2023-05-11T16:40:33.430Z,93929.94
2023-05-11T16:43:00.117Z,93924.22
2023-05-11T16:45:26.909Z,93916.69
2023-05-11T16:47:53.754Z,93934.19
2023-05-11T16:50:20.813Z,93917.00
2023-05-11T16:52:48.785Z,93920.47
2023-05-11T16:55:16.206Z,93932.06
2023-05-11T16:57:44.532Z,93922.50
2023-05-11T17:00:12.957Z,93922.16
2023-05-11T17:02:40.201Z,93915.25
2023-05-11T17:05:08.136Z,93923.72
2023-05-11T17:07:34.802Z,93912.13
2023-05-11T17:10:01.749Z,93910.56
2023-05-11T17:12:32.133Z,93918.38
2023-05-11T17:14:58.842Z,93915.25
2023-05-11T17:17:25.643Z,93906.56
2023-05-11T17:19:52.353Z,93915.38
2023-05-11T17:22:19.062Z,93915.50
2023-05-11T17:24:45.905Z,93910.34
2023-05-11T17:27:12.643Z,93923.63
2023-05-11T17:29:39.531Z,93915.25
2023-05-11T17:32:06.848Z,93922.94
2023-05-11T17:34:33.726Z,93914.91
2023-05-11T17:37:00.520Z,93908.09
2023-05-11T17:39:27.400Z,93920.25
2023-05-11T17:41:54.107Z,93924.16
2023-05-11T17:44:21.465Z,93917.47
2023-05-11T17:46:48.207Z,93923.72
2023-05-11T17:49:14.881Z,93918.34
2023-05-11T17:51:41.664Z,93921.72
2023-05-11T17:54:08.429Z,93913.13
2023-05-11T17:56:35.152Z,93921.63
2023-05-11T17:59:02.371Z,93928.22
2023-05-11T18:01:29.157Z,93933.59
2023-05-11T18:03:57.666Z,93930.78
2023-05-11T18:06:24.522Z,93928.66
2023-05-11T18:08:52.037Z,93928.78
2023-05-11T18:11:18.726Z,93924.22
2023-05-11T18:13:46.154Z,93936.88
2023-05-11T18:16:12.914Z,93930.94
2023-05-11T18:18:42.328Z,93940.56
2023-05-11T18:21:10.807Z,93935.53
2023-05-11T18:23:37.733Z,93941.00
2023-05-11T18:26:04.639Z,93939.78
2023-05-11T18:28:31.448Z,93933.84
2023-05-11T18:30:58.102Z,93943.13
2023-05-11T18:33:24.831Z,93938.31
2023-05-11T18:35:52.210Z,93942.00
2023-05-11T18:38:19.155Z,93946.47
2023-05-11T18:40:45.928Z,93947.91
2023-05-11T18:43:13.796Z,93946.59
2023-05-11T18:45:41.233Z,93943.66
2023-05-11T18:48:08.130Z,93949.50
2023-05-11T18:50:34.922Z,93951.28
2023-05-11T18:53:02.257Z,93947.03
2023-05-11T18:55:30.834Z,93951.59
2023-05-11T18:57:58.083Z,93951.28
2023-05-11T19:00:24.857Z,93952.06
2023-05-11T19:02:52.171Z,93956.84
2023-05-11T19:05:19.415Z,93959.97
2023-05-11T19:07:46.131Z,93960.53
2023-05-11T19:10:12.931Z,93960.41
2023-05-11T19:12:39.606Z,93948.00
2023-05-11T19:15:06.912Z,93962.53
2023-05-11T19:17:33.582Z,93942.31
2023-05-11T19:20:00.275Z,93963.19
2023-05-11T19:22:27.153Z,93959.53
2023-05-11T19:24:53.844Z,93944.00
2023-05-11T19:27:20.546Z,93957.41
2023-05-11T19:29:49.569Z,93960.31
2023-05-11T19:32:16.324Z,93956.06
2023-05-11T19:34:42.988Z,93957.19
2023-05-11T19:37:09.696Z,93962.66
2023-05-11T19:39:36.464Z,93959.63
2023-05-11T19:42:03.367Z,93971.78
2023-05-11T19:44:33.170Z,93959.38
2023-05-11T19:47:00.018Z,93970.22
2023-05-11T19:49:28.019Z,93962.50
2023-05-11T19:51:54.839Z,93977.13
2023-05-11T19:54:22.333Z,93969.41
2023-05-11T19:56:49.147Z,93965.88
2023-05-11T19:59:15.802Z,93971.34
2023-05-11T20:01:42.633Z,93963.19
2023-05-11T20:04:09.444Z,93968.88
2023-05-11T20:06:36.120Z,93975.56
2023-05-11T20:09:02.855Z,93977.13
2023-05-11T20:11:31.269Z,93976.59
2023-05-11T20:14:00.776Z,93964.84
2023-05-11T20:16:30.403Z,93973.13
2023-05-11T20:18:59.396Z,93971.56
2023-05-11T20:21:26.546Z,93977.00
2023-05-11T20:23:53.208Z,93974.22
2023-05-11T20:26:19.944Z,93974.66
2023-05-11T20:28:46.657Z,93961.63
2023-05-11T20:31:13.403Z,93961.13
2023-05-11T20:36:10.495Z,93963.91
2023-05-11T20:38:37.166Z,93963.03
2023-05-11T20:41:03.827Z,93959.75
2023-05-11T20:43:30.608Z,93959.69
2023-05-11T20:46:03.413Z,93955.13
2023-05-11T20:48:39.791Z,93947.94
2023-05-11T20:51:07.765Z,93959.00
2023-05-11T20:53:34.700Z,93949.41
2023-05-11T20:56:02.926Z,93951.31
2023-05-11T20:58:31.713Z,93961.34
2023-05-11T21:00:58.475Z,93949.41
2023-05-11T21:03:26.724Z,93954.66
2023-05-11T21:05:53.639Z,93948.06
2023-05-11T21:08:20.497Z,93957.66
2023-05-11T21:10:47.175Z,93954.41
2023-05-11T21:13:13.964Z,93952.28
2023-05-11T21:15:41.313Z,93951.50
2023-05-11T21:18:08.241Z,93951.50
2023-05-11T21:20:36.054Z,93957.00
2023-05-11T21:23:03.828Z,93933.81
2023-05-11T21:25:30.516Z,93951.06
2023-05-11T21:27:57.246Z,93960.78
2023-05-11T21:30:23.961Z,93962.09
2023-05-11T21:32:50.795Z,93957.97
2023-05-11T21:35:18.075Z,93951.19
2023-05-11T21:37:49.282Z,93958.22
2023-05-11T21:40:17.388Z,93947.84
2023-05-11T21:42:44.922Z,93949.16
2023-05-11T21:45:12.361Z,93946.03
2023-05-11T21:47:39.501Z,93960.53
2023-05-11T21:50:08.728Z,93963.19
2023-05-11T21:52:37.159Z,93955.50
2023-05-11T21:55:04.967Z,93965.22
2023-05-11T21:57:31.910Z,93957.19
2023-05-11T21:59:58.619Z,93963.34
2023-05-11T22:02:25.880Z,93961.44
2023-05-11T22:04:52.910Z,93959.34
2023-05-11T22:07:20.071Z,93959.53
2023-05-11T22:09:46.770Z,93954.59
2023-05-11T22:12:13.785Z,93956.34
2023-05-11T22:14:41.502Z,93959.94
2023-05-11T22:17:08.280Z,93967.97
2023-05-11T22:19:34.963Z,93961.28
2023-05-11T22:22:01.598Z,93963.97
2023-05-11T22:24:28.522Z,93970.50
2023-05-11T22:26:55.966Z,93960.97
2023-05-11T22:29:22.881Z,93950.59
2023-05-11T22:31:49.741Z,93961.66
2023-05-11T22:34:16.933Z,93958.66
2023-05-11T22:36:43.957Z,93960.97
2023-05-11T22:39:11.446Z,93965.16
2023-05-11T22:41:38.737Z,93970.81
2023-05-11T22:44:05.843Z,93962.63
2023-05-11T22:46:32.782Z,93958.19
2023-05-11T22:48:59.721Z,93958.63
2023-05-11T22:51:27.151Z,93953.22
2023-05-11T22:53:54.839Z,93964.97
2023-05-11T22:56:21.615Z,93963.06
2023-05-11T22:58:48.299Z,93964.50
2023-05-11T23:01:15.073Z,93954.59
2023-05-11T23:03:42.013Z,93958.63
2023-05-11T23:06:08.817Z,93958.97
2023-05-11T23:08:35.524Z,93960.16
2023-05-11T23:11:02.265Z,93951.50
2023-05-11T23:13:28.937Z,93947.84
2023-05-11T23:15:55.745Z,93956.44
2023-05-11T23:18:22.520Z,93967.75
2023-05-11T23:20:54.800Z,93955.78
2023-05-11T23:23:21.327Z,93960.50
2023-05-11T23:25:47.990Z,93953.56
2023-05-11T23:28:14.716Z,93960.28
2023-05-11T23:30:41.705Z,93947.34
2023-05-11T23:33:09.166Z,93953.16
2023-05-11T23:35:36.084Z,93950.34
2023-05-11T23:38:02.891Z,93947.13
2023-05-11T23:40:29.884Z,93950.78
2023-05-11T23:42:57.107Z,93952.47
2023-05-11T23:45:25.688Z,93949.56
2023-05-11T23:47:52.465Z,93955.03
2023-05-11T23:50:19.610Z,93950.59
2023-05-11T23:52:46.696Z,93943.03
2023-05-11T23:55:13.449Z,93930.63
2023-05-11T23:57:41.350Z,93939.22
